Time;durP1;ratioP1;P1;durP2;ratioP2;P2;SDS_P1;SDS_P2;PMS_P1;PMS_P2;Temp;Humidity;BMP_temperature;BMP_pressure;BME280_temperature;BME280_humidity;BME280_pressure;Samples;Min_cycle;Max_cycle;Signal;HPM_P1;HPM_P2
2022/03/29 00:02:08;;;;;;;;;;;;;;;22.16;42.20;101362.66;7278391;19;153800;-58
2022/03/29 00:04:34;;;;;;;;;;;;;;;22.14;42.28;101361.28;7277586;19;151548;-58
2022/03/29 00:07:01;;;;;;;;;;;;;;;22.14;41.64;101364.94;7279173;19;152382;-57
2022/03/29 00:09:28;;;;;;;;;;;;;;;22.13;42.25;101356.81;7282014;19;153978;-58
2022/03/29 00:11:55;;;;;;;;;;;;;;;22.10;42.25;101355.47;7276872;19;153585;-58
2022/03/29 00:14:22;;;;;;;;;;;;;;;22.09;42.18;101362.22;7277432;19;153336;-57
2022/03/29 00:16:48;;;;;;;;;;;;;;;22.08;42.08;101356.88;7278992;19;152066;-58
2022/03/29 00:19:15;;;;;;;;;;;;;;;22.07;42.28;101349.63;7277985;19;154731;-58
2022/03/29 00:21:42;;;;;;;;;;;;;;;22.05;41.97;101351.91;7274362;19;153347;-58
2022/03/29 00:24:09;;;;;;;;;;;;;;;22.04;42.39;101350.22;7278930;19;151732;-57
2022/03/29 00:26:36;;;;;;;;;;;;;;;22.03;42.23;101351.38;7277680;19;152625;-57
2022/03/29 00:29:03;;;;;;;;;;;;;;;22.03;42.13;101348.56;7277580;19;153782;-57
2022/03/29 00:31:30;;;;;;;;;;;;;;;22.01;42.70;101345.22;7285191;19;152617;-57
2022/03/29 00:33:56;;;;;;;;;;;;;;;21.99;42.55;101333.41;7277047;19;154897;-60
2022/03/29 00:36:23;;;;;;;;;;;;;;;22.00;42.29;101329.47;7277462;19;152345;-59
2022/03/29 00:38:50;;;;;;;;;;;;;;;22.00;42.30;101333.13;7277567;19;153376;-57
2022/03/29 00:41:17;;;;;;;;;;;;;;;21.97;42.76;101330.09;7274263;19;153573;-57
2022/03/29 00:43:43;;;;;;;;;;;;;;;21.98;42.54;101331.78;7278700;19;152269;-57
2022/03/29 00:46:10;;;;;;;;;;;;;;;21.98;42.79;101324.16;7277977;19;152928;-57
2022/03/29 00:48:38;;;;;;;;;;;;;;;21.97;42.84;101316.03;7275792;19;153618;-57
2022/03/29 00:51:05;;;;;;;;;;;;;;;21.95;42.88;101315.50;7277911;19;151490;-57
2022/03/29 00:53:32;;;;;;;;;;;;;;;21.93;42.81;101307.38;7282908;19;153628;-57
2022/03/29 00:55:59;;;;;;;;;;;;;;;21.91;42.72;101304.00;7277938;19;152193;-57
2022/03/29 00:58:26;;;;;;;;;;;;;;;21.87;42.97;101304.91;7273979;19;152740;-57
2022/03/29 01:00:55;;;;;;;;;;;;;;;21.87;43.00;101308.56;7275097;19;153856;-57
2022/03/29 01:03:22;;;;;;;;;;;;;;;21.87;42.70;101313.34;7276740;19;151966;-57
2022/03/29 01:05:48;;;;;;;;;;;;;;;21.84;42.93;101311.19;7277496;19;153272;-57
2022/03/29 01:08:15;;;;;;;;;;;;;;;21.83;43.03;101313.16;7276698;19;153221;-57
2022/03/29 01:10:43;;;;;;;;;;;;;;;21.81;42.95;101311.78;7275353;19;151962;-57
2022/03/29 01:13:11;;;;;;;;;;;;;;;21.78;42.63;101303.97;7275072;19;153313;-58
2022/03/29 01:15:38;;;;;;;;;;;;;;;21.79;42.95;101305.63;7283792;19;153199;-58
2022/03/29 01:18:05;;;;;;;;;;;;;;;21.78;43.12;101306.78;7276671;19;153741;-58
2022/03/29 01:20:38;;;;;;;;;;;;;;;21.77;42.95;101299.47;7275699;19;153476;-57
2022/03/29 01:23:05;;;;;;;;;;;;;;;21.74;42.99;101304.59;7275395;19;151889;-56
2022/03/29 01:25:36;;;;;;;;;;;;;;;21.76;42.86;101306.25;7283360;19;152592;-57
2022/03/29 01:28:04;;;;;;;;;;;;;;;21.73;43.39;101305.72;7282940;19;154052;-57
2022/03/29 01:30:36;;;;;;;;;;;;;;;21.74;43.01;101303.75;7281990;19;151639;-57
2022/03/29 01:33:06;;;;;;;;;;;;;;;21.72;43.29;101301.22;7282803;19;153643;-58
2022/03/29 01:35:33;;;;;;;;;;;;;;;21.71;43.25;101304.38;7280540;19;154186;-57
2022/03/29 01:38:00;;;;;;;;;;;;;;;21.70;43.55;101297.06;7290793;19;152075;-57
2022/03/29 01:40:28;;;;;;;;;;;;;;;21.70;43.37;101297.06;7280105;19;154220;-57
2022/03/29 01:43:02;;;;;;;;;;;;;;;21.66;42.98;101302.47;7283190;19;152541;-57
2022/03/29 01:45:30;;;;;;;;;;;;;;;21.67;43.06;101300.47;7283068;19;153541;-57
2022/03/29 01:47:57;;;;;;;;;;;;;;;21.66;43.40;101302.47;7280191;19;153407;-59
2022/03/29 01:50:24;;;;;;;;;;;;;;;21.61;43.45;101301.72;7282659;19;151945;-60
2022/03/29 01:52:52;;;;;;;;;;;;;;;21.62;43.31;101292.97;7282787;19;152151;-57
2022/03/29 01:55:20;;;;;;;;;;;;;;;21.63;43.55;101294.63;7279174;19;154098;-57
2022/03/29 01:57:47;;;;;;;;;;;;;;;21.61;43.44;101290.47;7287115;19;151982;-57
2022/03/29 02:03:05;;;;;;;;;;;;;;;21.59;43.68;101278.69;7281863;19;153264;-57
2022/03/29 02:05:32;;;;;;;;;;;;;;;21.56;43.60;101277.34;7282570;19;153658;-57
2022/03/29 02:07:59;;;;;;;;;;;;;;;21.55;43.28;101272.84;7281279;19;153264;-57
2022/03/29 02:10:32;;;;;;;;;;;;;;;21.54;43.48;101268.38;7282895;19;152157;-57
2022/03/29 02:13:00;;;;;;;;;;;;;;;21.54;43.43;101261.91;7281355;19;153142;-57
2022/03/29 02:15:27;;;;;;;;;;;;;;;21.52;43.73;101265.03;7278975;19;153264;-59
2022/03/29 02:17:53;;;;;;;;;;;;;;;21.49;43.84;101257.19;7280987;19;152029;-57
2022/03/29 02:20:21;;;;;;;;;;;;;;;21.50;43.44;101247.63;7288983;19;152567;-57
2022/03/29 02:22:48;;;;;;;;;;;;;;;21.49;43.79;101251.59;7279717;19;152338;-58
2022/03/29 02:25:15;;;;;;;;;;;;;;;21.49;43.58;101242.31;7282434;19;153300;-57
2022/03/29 02:27:43;;;;;;;;;;;;;;;21.44;43.62;101246.03;7280478;19;154027;-56
2022/03/29 02:30:12;;;;;;;;;;;;;;;21.43;43.84;101241.59;7280731;19;152404;-58
2022/03/29 02:32:39;;;;;;;;;;;;;;;21.40;44.07;101250.63;7282088;19;152651;-58
2022/03/29 02:35:06;;;;;;;;;;;;;;;21.38;43.56;101243.66;7280288;19;153614;-57
2022/03/29 02:37:33;;;;;;;;;;;;;;;21.34;43.88;101240.63;7280725;19;151700;-58
2022/03/29 02:40:00;;;;;;;;;;;;;;;21.33;43.74;101238.09;7281769;19;152578;-60
2022/03/29 02:42:27;;;;;;;;;;;;;;;21.31;44.12;101229.97;7287110;19;154468;-57
2022/03/29 02:44:54;;;;;;;;;;;;;;;21.28;43.83;101241.84;7280863;19;153445;-57
2022/03/29 02:47:22;;;;;;;;;;;;;;;21.26;44.06;101247.75;7280736;19;153264;-58
2022/03/29 02:49:49;;;;;;;;;;;;;;;21.24;43.74;101237.97;7280589;19;151751;-58
2022/03/29 02:52:15;;;;;;;;;;;;;;;21.24;43.89;101238.81;7281325;19;153164;-58
2022/03/29 02:54:42;;;;;;;;;;;;;;;21.28;44.00;101244.66;7279087;19;155263;-57
2022/03/29 02:57:10;;;;;;;;;;;;;;;21.26;44.11;101236.50;7281735;19;151570;-58
2022/03/29 02:59:37;;;;;;;;;;;;;;;21.23;43.98;101236.28;7281835;19;153362;-58
2022/03/29 03:02:04;;;;;;;;;;;;;;;21.22;43.99;101241.06;7274803;19;153686;-58
2022/03/29 03:04:31;;;;;;;;;;;;;;;21.20;43.97;101243.38;7286960;19;152627;-58
2022/03/29 03:06:58;;;;;;;;;;;;;;;21.16;44.05;101238.69;7280367;19;155139;-58
2022/03/29 03:09:25;;;;;;;;;;;;;;;21.13;44.57;101228.88;7280844;19;151689;-58
2022/03/29 03:11:51;;;;;;;;;;;;;;;21.14;44.57;101222.09;7280467;19;153696;-58
2022/03/29 03:14:18;;;;;;;;;;;;;;;21.13;44.58;101222.41;7279394;19;153943;-58
2022/03/29 03:16:45;;;;;;;;;;;;;;;21.11;44.66;101219.06;7280821;19;151758;-56
2022/03/29 03:19:31;;;;;;;;;;;;;;;21.08;44.92;101209.25;7279215;19;154214;-57
2022/03/29 03:21:58;;;;;;;;;;;;;;;21.06;44.66;101207.88;7277599;19;154045;-57
2022/03/29 03:24:25;;;;;;;;;;;;;;;21.04;44.80;101210.16;7280454;19;152535;-57
2022/03/29 03:26:52;;;;;;;;;;;;;;;21.02;44.68;101207.69;7286179;19;153356;-58
2022/03/29 03:29:18;;;;;;;;;;;;;;;21.05;44.83;101209.03;7280736;19;151806;-58
2022/03/29 03:31:45;;;;;;;;;;;;;;;21.01;44.73;101203.19;7280132;19;152633;-57
2022/03/29 03:34:12;;;;;;;;;;;;;;;20.99;44.87;101208.25;7279641;19;155720;-58
2022/03/29 03:36:39;;;;;;;;;;;;;;;20.97;45.05;101199.31;7281135;19;152266;-58
2022/03/29 03:39:05;;;;;;;;;;;;;;;21.01;44.90;101199.53;7279464;19;153395;-57
2022/03/29 03:41:32;;;;;;;;;;;;;;;21.01;45.08;101186.34;7278061;19;154434;-58
2022/03/29 03:43:59;;;;;;;;;;;;;;;21.02;45.33;101184.38;7279781;19;151953;-57
2022/03/29 03:46:27;;;;;;;;;;;;;;;20.98;45.46;101186.13;7278817;19;153027;-57
2022/03/29 03:48:54;;;;;;;;;;;;;;;20.96;45.32;101172.38;7285304;19;152139;-57
2022/03/29 03:51:21;;;;;;;;;;;;;;;20.96;45.52;101171.53;7279957;19;152556;-58
2022/03/29 03:53:49;;;;;;;;;;;;;;;20.95;45.33;101167.03;7278030;19;153951;-57
2022/03/29 03:56:17;;;;;;;;;;;;;;;20.95;45.72;101155.81;7280038;19;151997;-57
2022/03/29 03:58:48;;;;;;;;;;;;;;;20.92;45.83;101150.81;7277723;19;154721;-57
2022/03/29 04:01:15;;;;;;;;;;;;;;;20.92;45.49;101137.59;7278662;19;153183;-57
2022/03/29 04:03:41;;;;;;;;;;;;;;;20.94;45.38;101140.13;7279213;19;152159;-59
2022/03/29 04:06:08;;;;;;;;;;;;;;;20.93;45.28;101144.06;7279782;19;152180;-59
2022/03/29 04:08:35;;;;;;;;;;;;;;;20.90;45.46;101141.84;7285570;19;154248;-57
2022/03/29 04:11:02;;;;;;;;;;;;;;;20.86;45.73;101144.44;7279041;19;153375;-58
2022/03/29 04:13:29;;;;;;;;;;;;;;;20.86;45.61;101150.06;7274051;19;154116;-57
2022/03/29 04:15:55;;;;;;;;;;;;;;;20.85;45.58;101151.19;7276819;19;151735;-57
2022/03/29 04:18:28;;;;;;;;;;;;;;;20.84;45.36;101158.81;7275989;19;153234;-58
2022/03/29 04:20:54;;;;;;;;;;;;;;;20.81;45.73;101162.22;7272854;19;153329;-57
2022/03/29 04:23:21;;;;;;;;;;;;;;;20.79;45.71;101161.69;7275602;19;152349;-58
2022/03/29 04:25:48;;;;;;;;;;;;;;;20.80;45.85;101154.09;7276189;19;153606;-57
2022/03/29 04:28:14;;;;;;;;;;;;;;;20.80;45.52;101154.09;7272653;19;153266;-57
2022/03/29 04:30:41;;;;;;;;;;;;;;;20.79;45.61;101153.28;7283276;19;152896;-58
2022/03/29 04:33:08;;;;;;;;;;;;;;;20.78;45.62;101147.94;7274983;19;153235;-57
2022/03/29 04:35:34;;;;;;;;;;;;;;;20.76;46.17;101145.44;7275216;19;152060;-57
2022/03/29 04:38:02;;;;;;;;;;;;;;;20.75;45.68;101146.59;7273657;19;152588;-57
2022/03/29 04:40:28;;;;;;;;;;;;;;;20.77;46.04;101132.22;7274353;19;153272;-57
2022/03/29 04:42:55;;;;;;;;;;;;;;;20.76;45.87;101141.78;7274659;19;152387;-57
2022/03/29 04:45:22;;;;;;;;;;;;;;;20.76;45.92;101128.59;7272981;19;153342;-59
2022/03/29 04:47:49;;;;;;;;;;;;;;;20.74;46.42;101125.28;7274150;19;152555;-59
2022/03/29 04:50:16;;;;;;;;;;;;;;;20.75;46.58;101118.53;7274188;19;151971;-57
2022/03/29 04:52:46;;;;;;;;;;;;;;;20.76;46.43;101119.31;7281533;19;153435;-61
2022/03/29 04:55:16;;;;;;;;;;;;;;;20.77;46.29;101115.38;7274172;19;152335;-58
2022/03/29 04:57:44;;;;;;;;;;;;;;;20.79;46.07;101118.72;7273703;19;153010;-58
2022/03/29 05:00:12;;;;;;;;;;;;;;;20.81;46.24;101114.47;7271827;19;153244;-59
2022/03/29 05:02:40;;;;;;;;;;;;;;;20.82;46.58;101112.50;7273863;19;151748;-59
2022/03/29 05:05:07;;;;;;;;;;;;;;;20.86;46.71;101116.34;7275363;19;152433;-58
2022/03/29 05:07:34;;;;;;;;;;;;;;;20.91;47.32;101115.44;7273460;19;153287;-58
2022/03/29 05:10:00;;;;;;;;;;;;;;;20.96;47.37;101115.34;7274989;19;152127;-57
2022/03/29 05:12:27;;;;;;;;;;;;;;;21.01;47.55;101115.25;7109254;19;3179601;-58
2022/03/29 05:14:54;;;;;;;;;;;;;;;21.06;46.80;101118.00;7284045;19;153180;-58
2022/03/29 05:17:20;;;;;;;;;;;;;;;21.12;47.10;101122.38;7275251;19;152740;-59
2022/03/29 05:19:48;;;;;;;;;;;;;;;21.19;47.87;101111.59;7276041;19;153846;-57
2022/03/29 05:22:14;;;;;;;;;;;;;;;21.27;47.77;101105.25;7274019;19;152194;-58
2022/03/29 05:24:41;;;;;;;;;;;;;;;21.34;48.20;101102.91;7277675;19;152732;-57
2022/03/29 05:27:08;;;;;;;;;;;;;;;21.42;47.61;101095.72;7275786;19;153194;-57
2022/03/29 05:29:35;;;;;;;;;;;;;;;21.48;47.82;101100.94;7275506;19;152022;-57
2022/03/29 05:32:02;;;;;;;;;;;;;;;21.56;47.87;101093.75;7276380;19;153189;-57
2022/03/29 05:34:29;;;;;;;;;;;;;;;21.62;47.65;101095.31;7276069;19;154055;-57
2022/03/29 05:36:56;;;;;;;;;;;;;;;21.69;47.10;101092.91;7285093;19;151802;-58
2022/03/29 05:39:22;;;;;;;;;;;;;;;21.73;47.08;101093.94;7274978;19;155102;-57
2022/03/29 05:41:49;;;;;;;;;;;;;;;21.80;47.23;101094.38;7277149;19;151804;-58
2022/03/29 05:44:16;;;;;;;;;;;;;;;21.86;46.81;101093.09;7276333;19;152744;-58
2022/03/29 05:49:28;;;;;;;;;;;;;;;21.99;46.18;101094.25;7275652;19;152207;-58
2022/03/29 05:51:55;;;;;;;;;;;;;;;22.05;46.65;101091.03;7274232;19;153459;-57
2022/03/29 05:54:22;;;;;;;;;;;;;;;22.12;46.49;101082.16;7273597;19;154209;-58
2022/03/29 05:56:49;;;;;;;;;;;;;;;22.18;46.18;101080.88;7283654;19;152195;-58
2022/03/29 05:59:16;;;;;;;;;;;;;;;22.25;45.94;101086.09;7272448;19;153767;-58
2022/03/29 06:01:42;;;;;;;;;;;;;;;22.29;46.05;101076.69;7276408;19;151816;-58
2022/03/29 06:04:09;;;;;;;;;;;;;;;22.34;45.58;101076.59;7271438;19;153098;-59
2022/03/29 06:06:38;;;;;;;;;;;;;;;22.40;45.42;101078.09;7272220;19;153321;-57
2022/03/29 06:09:06;;;;;;;;;;;;;;;22.45;45.32;101082.78;7276040;19;151914;-58
2022/03/29 06:11:32;;;;;;;;;;;;;;;22.51;45.03;101084.34;7281865;19;153545;-57
2022/03/29 06:13:59;;;;;;;;;;;;;;;22.55;44.99;101083.38;7281613;19;153453;-57
2022/03/29 06:16:27;;;;;;;;;;;;;;;22.59;45.20;101067.50;7282138;19;152042;-58
2022/03/29 06:18:54;;;;;;;;;;;;;;;22.63;45.47;101062.91;7288695;19;151882;-59
2022/03/29 06:21:22;;;;;;;;;;;;;;;22.71;44.20;101072.63;7282527;19;152404;-59
2022/03/29 06:23:48;;;;;;;;;;;;;;;22.72;43.63;101065.81;7281302;19;153360;-58
2022/03/29 06:26:18;;;;;;;;;;;;;;;22.71;42.86;101068.97;7278444;19;153606;-58
2022/03/29 06:28:49;;;;;;;;;;;;;;;22.70;42.12;101067.28;7281642;19;152023;-58
2022/03/29 06:31:16;;;;;;;;;;;;;;;22.69;41.78;101060.78;7282207;19;153460;-59
2022/03/29 06:33:43;;;;;;;;;;;;;;;22.69;41.70;101059.94;7279518;19;153265;-59
2022/03/29 06:36:09;;;;;;;;;;;;;;;22.66;41.25;101058.63;7281869;19;151882;-58
2022/03/29 06:38:36;;;;;;;;;;;;;;;22.46;38.18;101045.03;7281623;19;152553;-58
2022/03/29 06:41:03;;;;;;;;;;;;;;;22.25;39.39;101055.13;7288764;19;153266;-56
2022/03/29 06:43:30;;;;;;;;;;;;;;;22.39;40.36;101048.31;7280951;19;152644;-58
2022/03/29 06:45:56;;;;;;;;;;;;;;;22.35;39.57;101054.91;7277827;19;153529;-58
2022/03/29 06:48:23;;;;;;;;;;;;;;;22.36;39.50;101051.75;7282204;19;151838;-58
2022/03/29 06:50:50;;;;;;;;;;;;;;;22.35;39.53;101050.06;7280948;19;152075;-58
2022/03/29 06:53:16;;;;;;;;;;;;;;;22.36;39.94;101054.56;7280763;19;153408;-58
2022/03/29 06:55:43;;;;;;;;;;;;;;;22.37;39.70;101052.59;7280494;19;151979;-58
2022/03/29 06:58:10;;;;;;;;;;;;;;;22.35;39.44;101054.91;7279040;19;152149;-58
2022/03/29 07:00:42;;;;;;;;;;;;;;;22.34;39.89;101067.31;7280416;19;153355;-58
2022/03/29 07:03:10;;;;;;;;;;;;;;;22.32;39.84;101067.59;7287904;19;151848;-58
2022/03/29 07:05:38;;;;;;;;;;;;;;;22.30;39.86;101067.13;7277569;19;153966;-58
2022/03/29 07:08:06;;;;;;;;;;;;;;;22.29;39.64;101068.25;7277966;19;151873;-57
2022/03/29 07:13:18;;;;;;;;;;;;;;;22.27;39.84;101069.72;7277609;19;153711;-58
2022/03/29 07:15:47;;;;;;;;;;;;;;;22.26;39.85;101076.50;7280375;19;152348;-58
2022/03/29 07:18:14;;;;;;;;;;;;;;;22.25;40.15;101080.47;7280210;19;152623;-58
2022/03/29 07:20:40;;;;;;;;;;;;;;;22.17;40.11;101077.25;7279421;19;154400;-58
2022/03/29 07:23:07;;;;;;;;;;;;;;;22.19;40.42;101079.75;7277861;19;151973;-58
2022/03/29 07:25:34;;;;;;;;;;;;;;;22.18;40.05;101067.66;7287120;19;153822;-58
2022/03/29 07:28:02;;;;;;;;;;;;;;;22.16;40.11;101080.38;7275447;19;153127;-59
2022/03/29 07:30:29;;;;;;;;;;;;;;;22.13;40.07;101066.94;7279030;19;152724;-58
2022/03/29 07:32:59;;;;;;;;;;;;;;;22.10;39.85;101078.81;7276685;19;154360;-58
2022/03/29 07:35:28;;;;;;;;;;;;;;;22.06;40.14;101074.97;7279574;19;152023;-59
2022/03/29 07:37:55;;;;;;;;;;;;;;;22.03;39.84;101078.44;7277481;19;152648;-58
2022/03/29 07:40:24;;;;;;;;;;;;;;;22.02;39.84;101074.78;7278277;19;153993;-58
2022/03/29 07:42:51;;;;;;;;;;;;;;;22.00;39.73;101073.41;7278350;19;152491;-58
2022/03/29 07:45:18;;;;;;;;;;;;;;;21.97;39.64;101079.69;7244659;19;153672;-58
2022/03/29 07:47:46;;;;;;;;;;;;;;;21.90;39.84;101079.22;7279388;19;153084;-58
2022/03/29 07:50:33;;;;;;;;;;;;;;;21.89;40.05;101070.00;7277872;19;152663;-58
2022/03/29 07:53:03;;;;;;;;;;;;;;;21.84;40.16;101081.34;7276320;19;154267;-58
2022/03/29 07:55:30;;;;;;;;;;;;;;;21.82;39.84;101075.19;7276319;19;152039;-59
2022/03/29 07:58:10;;;;;;;;;;;;;;;21.79;40.10;101075.00;7275522;19;153939;-58
2022/03/29 08:00:37;;;;;;;;;;;;;;;21.75;40.16;101074.78;7277779;19;153636;-58
2022/03/29 08:03:08;;;;;;;;;;;;;;;21.73;40.14;101066.66;7276384;19;152570;-58
2022/03/29 08:05:37;;;;;;;;;;;;;;;21.70;40.05;101060.84;7277779;19;152831;-62
2022/03/29 08:08:04;;;;;;;;;;;;;;;21.66;39.95;101063.44;7283982;19;153187;-59
2022/03/29 08:10:32;;;;;;;;;;;;;;;21.63;40.02;101060.41;7276931;19;153573;-58
2022/03/29 08:13:00;;;;;;;;;;;;;;;21.59;39.99;101059.38;7273983;19;153403;-58
2022/03/29 08:15:27;;;;;;;;;;;;;;;21.56;40.14;101055.22;7276946;19;152916;-58
2022/03/29 08:17:59;;;;;;;;;;;;;;;21.55;39.91;101059.16;7263563;19;152703;-59
2022/03/29 08:20:25;;;;;;;;;;;;;;;21.54;39.84;101051.03;7275546;19;154269;-58
2022/03/29 08:22:55;;;;;;;;;;;;;;;21.50;40.02;101056.47;7276477;19;152180;-59
2022/03/29 08:25:22;;;;;;;;;;;;;;;21.48;40.07;101055.13;7277594;19;153529;-58
2022/03/29 08:27:49;;;;;;;;;;;;;;;21.47;40.03;101051.47;7275480;19;154598;-58
2022/03/29 08:30:16;;;;;;;;;;;;;;;21.44;40.08;101056.88;7283786;19;153018;-58
2022/03/29 08:32:43;;;;;;;;;;;;;;;21.45;40.22;101055.72;7274839;19;154192;-59
2022/03/29 08:35:11;;;;;;;;;;;;;;;21.42;40.22;101051.56;7277738;19;151961;-58
2022/03/29 08:37:39;;;;;;;;;;;;;;;21.42;40.21;101057.19;7276152;19;153118;-58
2022/03/29 08:40:09;;;;;;;;;;;;;;;21.38;39.88;101060.94;7275749;19;156158;-58
2022/03/29 08:42:36;;;;;;;;;;;;;;;21.36;39.99;101055.63;7276421;19;152142;-58
2022/03/29 08:45:09;;;;;;;;;;;;;;;21.33;39.89;101058.22;7271211;19;153127;-57
2022/03/29 08:47:36;;;;;;;;;;;;;;;21.32;40.13;101060.19;7270805;19;154012;-59
2022/03/29 08:50:05;;;;;;;;;;;;;;;21.28;40.07;101047.91;7276719;19;152117;-58
2022/03/29 08:52:32;;;;;;;;;;;;;;;21.25;39.84;101048.56;7282945;19;153666;-58
2022/03/29 08:54:59;;;;;;;;;;;;;;;21.24;40.08;101042.09;7272990;19;151792;-59
2022/03/29 08:57:26;;;;;;;;;;;;;;;21.28;40.55;101045.94;7273601;19;153091;-58
2022/03/29 08:59:52;;;;;;;;;;;;;;;21.28;40.23;101042.28;7272151;19;154101;-58
2022/03/29 09:02:19;;;;;;;;;;;;;;;21.28;40.04;101053.53;7270114;19;152582;-58
2022/03/29 09:05:05;;;;;;;;;;;;;;;21.25;40.16;101051.34;7273494;19;153553;-57
2022/03/29 09:07:52;;;;;;;;;;;;;;;21.21;39.97;101048.31;7272320;19;154463;-58
2022/03/29 09:10:19;;;;;;;;;;;;;;;21.20;40.20;101045.84;7274831;19;152086;-58
2022/03/29 09:12:46;;;;;;;;;;;;;;;21.17;40.10;101029.56;7273071;19;153360;-57
2022/03/29 09:15:13;;;;;;;;;;;;;;;21.15;40.15;101031.88;7282602;19;156486;-58
2022/03/29 09:17:41;;;;;;;;;;;;;;;21.12;40.36;101029.66;7272420;19;154000;-58
2022/03/29 09:20:24;;;;;;;;;;;;;;;21.09;40.32;101031.09;7273961;19;153301;-57
2022/03/29 09:23:05;;;;;;;;;;;;;;;21.07;40.28;101026.97;7272347;19;152695;-58
2022/03/29 09:25:36;;;;;;;;;;;;;;;21.05;40.23;101026.41;7274148;19;153170;-58
2022/03/29 09:28:02;;;;;;;;;;;;;;;21.03;40.24;101017.50;7273973;19;153778;-57
2022/03/29 09:30:52;;;;;;;;;;;;;;;21.01;40.25;101014.97;7275585;19;151772;-58
2022/03/29 09:33:32;;;;;;;;;;;;;;;20.98;40.70;101020.38;7273410;19;154592;-58
2022/03/29 09:35:59;;;;;;;;;;;;;;;20.98;40.31;101028.81;7274296;19;153757;-57
2022/03/29 09:38:30;;;;;;;;;;;;;;;20.94;40.27;101031.38;7282512;19;152004;-58
2022/03/29 09:40:58;;;;;;;;;;;;;;;20.94;40.44;101030.56;7273289;19;153225;-58
2022/03/29 09:43:25;;;;;;;;;;;;;;;20.91;40.53;101026.41;7275387;19;152219;-57
2022/03/29 09:45:54;;;;;;;;;;;;;;;20.90;40.48;101018.28;7281039;19;153049;-58
2022/03/29 09:48:26;;;;;;;;;;;;;;;20.89;40.27;101017.47;7278066;19;153345;-58
2022/03/29 09:50:57;;;;;;;;;;;;;;;20.88;40.47;101010.16;7282367;19;151810;-58
2022/03/29 09:53:36;;;;;;;;;;;;;;;20.89;40.46;101014.66;7281727;19;152987;-58
2022/03/29 09:56:03;;;;;;;;;;;;;;;20.87;40.78;101005.69;7281939;19;153635;-58
2022/03/29 09:58:30;;;;;;;;;;;;;;;20.88;40.44;101012.97;7281619;19;151987;-58
2022/03/29 10:00:58;;;;;;;;;;;;;;;20.87;40.28;101011.31;7288533;19;153517;-58
2022/03/29 10:03:26;;;;;;;;;;;;;;;20.87;40.56;101008.50;7281136;19;153175;-58
2022/03/29 10:06:01;;;;;;;;;;;;;;;20.88;40.69;101010.16;7282099;19;154147;-58
2022/03/29 10:11:16;;;;;;;;;;;;;;;20.86;40.51;101009.63;7281501;19;151933;-57
2022/03/29 10:13:42;;;;;;;;;;;;;;;20.84;40.37;101009.13;7278763;19;152963;-58
2022/03/29 10:16:12;;;;;;;;;;;;;;;20.83;40.41;101007.47;7278403;19;154427;-58
2022/03/29 10:18:39;;;;;;;;;;;;;;;20.84;40.52;101003.50;7281656;19;152733;-58
2022/03/29 10:21:07;;;;;;;;;;;;;;;20.85;40.50;101007.97;7288540;19;152799;-57
2022/03/29 10:23:35;;;;;;;;;;;;;;;20.83;40.34;101011.09;7278272;19;152148;-57
2022/03/29 10:26:02;;;;;;;;;;;;;;;20.82;40.43;101008.59;7281568;19;153181;-58
2022/03/29 10:28:29;;;;;;;;;;;;;;;20.80;40.36;101003.28;7279689;19;155929;-58
2022/03/29 10:30:56;;;;;;;;;;;;;;;20.78;40.68;101008.38;7282035;19;152036;-57
2022/03/29 10:33:23;;;;;;;;;;;;;;;20.78;40.64;101010.34;7281763;19;153734;-58
2022/03/29 10:36:02;;;;;;;;;;;;;;;20.76;40.52;101004.19;7277529;19;153958;-58
2022/03/29 10:38:44;;;;;;;;;;;;;;;20.75;40.63;101002.56;7280238;19;152410;-57
2022/03/29 10:41:26;;;;;;;;;;;;;;;20.75;40.41;101008.19;7280583;19;152692;-57
2022/03/29 10:43:53;;;;;;;;;;;;;;;20.73;40.45;101014.09;7286229;19;153095;-58
2022/03/29 10:46:27;;;;;;;;;;;;;;;20.73;40.65;101007.63;7280168;19;153339;-58
2022/03/29 10:49:13;;;;;;;;;;;;;;;20.72;40.64;101005.97;7279604;19;153241;-57
2022/03/29 10:51:39;;;;;;;;;;;;;;;20.71;40.51;101012.75;7280550;19;152175;-58
2022/03/29 10:54:41;;;;;;;;;;;;;;;20.69;40.41;101006.59;7281100;19;153850;-60
2022/03/29 10:57:31;;;;;;;;;;;;;;;20.67;40.42;101014.50;7276558;19;154196;-57
2022/03/29 11:00:06;;;;;;;;;;;;;;;20.67;40.72;100992.84;7281555;19;152311;-58
2022/03/29 11:02:33;;;;;;;;;;;;;;;20.66;40.49;100996.81;7279960;19;152969;-57
2022/03/29 11:05:00;;;;;;;;;;;;;;;20.65;40.68;100989.53;7275774;19;152178;-58
2022/03/29 11:07:27;;;;;;;;;;;;;;;20.63;40.55;100986.19;7285522;19;152072;-57
2022/03/29 11:10:13;;;;;;;;;;;;;;;20.63;40.60;100980.56;7276886;19;154277;-58
2022/03/29 11:12:43;;;;;;;;;;;;;;;20.60;40.89;100969.97;7278629;19;155510;-58
2022/03/29 11:15:32;;;;;;;;;;;;;;;20.58;40.52;100969.44;7280371;19;152829;-58
2022/03/29 11:18:00;;;;;;;;;;;;;;;20.58;40.63;100975.03;7278623;19;154119;-58
2022/03/29 11:20:29;;;;;;;;;;;;;;;20.56;40.51;100971.72;7279368;19;153382;-58
2022/03/29 11:22:57;;;;;;;;;;;;;;;20.55;40.83;100978.47;7279863;19;153358;-58
2022/03/29 11:25:25;;;;;;;;;;;;;;;20.54;40.42;100981.59;7277296;19;153999;-58
2022/03/29 11:27:52;;;;;;;;;;;;;;;20.53;40.75;100971.53;7279337;19;152189;-58
2022/03/29 11:30:19;;;;;;;;;;;;;;;20.51;41.01;100970.97;7286313;19;152922;-58
2022/03/29 11:32:46;;;;;;;;;;;;;;;20.51;40.45;100970.97;7279973;19;151801;-58
2022/03/29 11:35:15;;;;;;;;;;;;;;;20.49;40.65;100973.28;7277128;19;153178;-58
2022/03/29 11:37:43;;;;;;;;;;;;;;;20.47;40.74;100982.00;7278734;19;154276;-57
2022/03/29 11:40:17;;;;;;;;;;;;;;;20.46;40.85;100973.88;7277176;19;152598;-58
2022/03/29 11:42:45;;;;;;;;;;;;;;;20.45;40.97;100969.41;7279374;19;153103;-57
2022/03/29 11:45:12;;;;;;;;;;;;;;;20.43;41.13;100972.53;7276943;19;153560;-58
2022/03/29 11:47:40;;;;;;;;;;;;;;;20.41;40.62;100981.25;7279495;19;151917;-58
2022/03/29 11:50:06;;;;;;;;;;;;;;;20.39;41.05;100972.31;7280180;19;153101;-58
2022/03/29 11:52:34;;;;;;;;;;;;;;;20.38;41.09;100969.81;7285788;19;152616;-57
2022/03/29 11:55:14;;;;;;;;;;;;;;;20.36;40.93;100964.50;7279246;19;152613;-58
2022/03/29 11:57:40;;;;;;;;;;;;;;;20.34;41.17;100966.78;7275464;19;153932;-58
2022/03/29 12:00:21;;;;;;;;;;;;;;;20.32;41.20;100960.63;7277854;19;152111;-57
2022/03/29 12:02:48;;;;;;;;;;;;;;;20.32;41.12;100969.06;7278651;19;153410;-58
2022/03/29 12:05:20;;;;;;;;;;;;;;;20.30;41.17;100956.47;7276111;19;154364;-58
2022/03/29 12:07:55;;;;;;;;;;;;;;;20.30;40.81;100964.91;7277545;19;151930;-58
2022/03/29 12:10:27;;;;;;;;;;;;;;;20.28;40.95;100967.97;7279479;19;152888;-58
2022/03/29 12:12:53;;;;;;;;;;;;;;;20.26;40.88;100952.59;7275701;19;154159;-58
2022/03/29 12:15:22;;;;;;;;;;;;;;;20.25;40.93;100946.16;7286562;19;152031;-58
2022/03/29 12:18:40;;;;;;;;;;;;;;;20.25;40.96;100951.75;7277431;19;154439;-58
2022/03/29 12:20:44;;;;;;;;;;;;;;;20.24;41.25;100944.47;7277105;19;152203;-57
2022/03/29 12:23:17;;;;;;;;;;;;;;;20.23;40.90;100947.56;7276263;19;153292;-57
2022/03/29 12:25:44;;;;;;;;;;;;;;;20.21;41.00;100947.91;7273028;19;152482;-58
2022/03/29 12:28:13;;;;;;;;;;;;;;;20.21;41.25;100939.50;7277543;19;152225;-58
2022/03/29 12:30:40;;;;;;;;;;;;;;;20.20;41.27;100943.44;7276502;19;153188;-58
2022/03/29 12:33:07;;;;;;;;;;;;;;;20.18;40.87;100934.47;7276046;19;154384;-58
2022/03/29 12:35:34;;;;;;;;;;;;;;;20.18;41.15;100931.66;7283093;19;151980;-58
2022/03/29 12:38:03;;;;;;;;;;;;;;;20.17;41.22;100921.56;7276341;19;153977;-58
2022/03/29 12:40:31;;;;;;;;;;;;;;;20.16;40.95;100921.91;7275664;19;152393;-57
2022/03/29 12:43:08;;;;;;;;;;;;;;;20.15;41.05;100923.88;7277722;19;152707;-57
2022/03/29 12:45:40;;;;;;;;;;;;;;;20.14;40.91;100907.34;7274107;19;153491;-58